createdAt,value
2022-12-15T00:03:16.305Z,0.54
2022-12-15T00:06:38.057Z,0.60
2022-12-15T00:09:58.655Z,0.58
2022-12-15T00:13:19.561Z,0.64
2022-12-15T00:16:40.446Z,0.60
2022-12-15T00:20:01.559Z,0.52
2022-12-15T00:23:29.689Z,0.58
2022-12-15T00:26:51.086Z,0.58
2022-12-15T00:30:11.989Z,0.51
2022-12-15T00:33:33.218Z,0.50
2022-12-15T00:36:54.363Z,0.47
2022-12-15T00:40:04.704Z,0.46
2022-12-15T00:43:07.002Z,0.50
2022-12-15T00:46:28.160Z,0.57
2022-12-15T00:49:50.242Z,0.41
2022-12-15T00:53:10.964Z,0.47
2022-12-15T00:56:31.909Z,0.48
2022-12-15T00:59:53.051Z,0.49
2022-12-15T01:03:13.995Z,0.40
2022-12-15T01:06:37.703Z,0.47
2022-12-15T01:09:58.251Z,0.57
2022-12-15T01:13:19.219Z,0.46
2022-12-15T01:16:40.241Z,0.43
2022-12-15T01:20:01.882Z,0.38
2022-12-15T01:23:04.152Z,0.45
2022-12-15T01:26:06.935Z,0.55
2022-12-15T01:29:09.146Z,0.58
2022-12-15T01:32:13.164Z,0.53
2022-12-15T01:35:15.835Z,0.58
2022-12-15T01:38:18.343Z,0.54
2022-12-15T01:41:20.728Z,0.47
2022-12-15T01:44:24.579Z,0.48
2022-12-15T01:47:28.088Z,0.41
2022-12-15T01:50:33.080Z,0.48
2022-12-15T01:53:39.804Z,0.41
2022-12-15T01:56:49.959Z,0.46
2022-12-15T01:59:55.924Z,0.39
2022-12-15T02:03:01.962Z,0.41
2022-12-15T02:06:05.143Z,0.42
2022-12-15T02:09:08.285Z,0.42
2022-12-15T02:12:22.992Z,0.44
2022-12-15T02:15:28.186Z,0.34
2022-12-15T02:18:37.703Z,0.42
2022-12-15T02:22:02.750Z,0.36
2022-12-15T02:25:29.701Z,0.40
2022-12-15T02:28:40.386Z,0.42
2022-12-15T02:32:00.349Z,0.35
2022-12-15T02:35:12.387Z,0.37
2022-12-15T02:38:14.943Z,0.35
2022-12-15T02:41:37.275Z,0.32
2022-12-15T02:44:53.708Z,0.31
2022-12-15T02:48:34.399Z,0.38
2022-12-15T02:52:11.303Z,0.36
2022-12-15T02:55:21.245Z,0.43
2022-12-15T02:58:36.380Z,0.45
2022-12-15T03:01:53.864Z,0.35
2022-12-15T03:04:58.336Z,0.27
2022-12-15T03:08:01.377Z,0.23
2022-12-15T03:11:04.041Z,0.32
2022-12-15T03:14:06.381Z,0.39
2022-12-15T03:17:08.980Z,0.45
2022-12-15T03:20:12.089Z,0.48
2022-12-15T03:23:14.807Z,0.45
2022-12-15T03:26:17.090Z,0.44
2022-12-15T03:29:19.894Z,0.48
2022-12-15T03:32:22.153Z,0.42
2022-12-15T03:35:24.688Z,0.41
2022-12-15T03:38:27.024Z,0.30
2022-12-15T03:41:29.520Z,0.36
2022-12-15T03:44:31.797Z,0.37
2022-12-15T03:47:34.397Z,0.36
2022-12-15T03:50:37.515Z,0.28
2022-12-15T03:53:40.851Z,0.21
2022-12-15T03:56:43.178Z,0.27
2022-12-15T03:59:45.749Z,0.28
2022-12-15T04:02:50.198Z,0.25
2022-12-15T04:05:53.150Z,0.23
2022-12-15T04:08:55.532Z,0.28
2022-12-15T04:11:58.106Z,0.20
2022-12-15T04:15:00.430Z,0.20
2022-12-15T04:18:05.365Z,0.20
2022-12-15T04:21:07.601Z,0.17
2022-12-15T04:24:29.125Z,0.10
2022-12-15T04:27:49.968Z,0.12
2022-12-15T04:31:18.148Z,0.11
2022-12-15T04:34:41.884Z,0.13
2022-12-15T04:38:03.223Z,0.17
2022-12-15T04:41:24.784Z,0.21
2022-12-15T04:44:50.161Z,0.07
2022-12-15T04:48:11.603Z,0.23
2022-12-15T04:51:32.579Z,0.28
2022-12-15T04:54:53.295Z,0.40
2022-12-15T04:58:14.677Z,0.40
2022-12-15T05:01:35.382Z,0.43
2022-12-15T05:04:56.689Z,0.46
2022-12-15T05:08:17.716Z,0.44
2022-12-15T05:11:39.080Z,0.45
2022-12-15T05:15:00.026Z,0.44
2022-12-15T05:18:21.286Z,0.53
2022-12-15T05:21:42.317Z,0.42
2022-12-15T05:25:03.205Z,0.47
2022-12-15T05:28:25.163Z,0.53
2022-12-15T05:31:46.341Z,0.55
2022-12-15T05:34:48.634Z,0.56
2022-12-15T05:37:51.158Z,0.53
2022-12-15T05:40:53.463Z,0.50
2022-12-15T05:43:55.985Z,0.50
2022-12-15T05:46:58.239Z,0.50
2022-12-15T05:50:00.798Z,0.48
2022-12-15T05:53:03.070Z,0.55
2022-12-15T05:56:08.345Z,0.53
2022-12-15T05:59:11.076Z,0.65
2022-12-15T06:02:13.672Z,0.71
2022-12-15T06:05:16.357Z,0.82
2022-12-15T06:08:18.581Z,0.72
2022-12-15T06:11:22.333Z,0.65
2022-12-15T06:14:24.544Z,0.65
2022-12-15T06:17:27.173Z,0.65
2022-12-15T06:20:29.559Z,0.70
2022-12-15T06:23:33.344Z,0.69
2022-12-15T06:26:37.997Z,0.68
2022-12-15T06:29:40.534Z,0.73
2022-12-15T06:32:42.771Z,0.79
2022-12-15T06:35:45.426Z,0.76
2022-12-15T06:38:49.985Z,0.89
2022-12-15T06:41:52.747Z,0.78
2022-12-15T06:44:54.985Z,0.82
2022-12-15T06:48:01.301Z,0.75
2022-12-15T06:51:05.838Z,0.89
2022-12-15T06:54:11.239Z,0.91
2022-12-15T06:57:13.540Z,0.88
2022-12-15T07:00:16.428Z,0.90
2022-12-15T07:03:20.417Z,1.02
2022-12-15T07:06:23.165Z,0.98
2022-12-15T07:09:26.254Z,0.95
2022-12-15T07:12:28.908Z,0.86
2022-12-15T07:15:31.886Z,0.93
2022-12-15T07:18:34.469Z,0.98
2022-12-15T07:21:36.764Z,1.01
2022-12-15T07:24:39.332Z,1.00
2022-12-15T07:27:41.622Z,1.08
2022-12-15T07:30:44.283Z,1.10
2022-12-15T07:33:48.476Z,1.12
2022-12-15T07:36:52.781Z,1.19
2022-12-15T07:39:55.212Z,1.21
2022-12-15T07:42:57.731Z,1.33
2022-12-15T07:46:00.423Z,1.44
2022-12-15T07:49:03.132Z,1.45
2022-12-15T07:52:05.498Z,1.43
2022-12-15T07:55:08.383Z,1.43
2022-12-15T07:58:10.631Z,1.42
2022-12-15T08:01:14.701Z,1.50
2022-12-15T08:04:17.524Z,1.35
2022-12-15T08:07:19.805Z,1.48
2022-12-15T08:10:22.381Z,1.48
2022-12-15T08:14:00.191Z,1.55
2022-12-15T08:16:47.566Z,1.62
2022-12-15T08:19:49.891Z,1.68
2022-12-15T08:22:52.471Z,1.70
2022-12-15T08:25:54.789Z,1.70
2022-12-15T08:29:11.894Z,1.59
2022-12-15T08:32:19.787Z,1.53
2022-12-15T08:35:54.619Z,1.74
2022-12-15T08:38:46.044Z,1.85
2022-12-15T08:41:50.038Z,1.98
2022-12-15T08:44:52.374Z,1.99
2022-12-15T08:47:56.132Z,1.80
2022-12-15T08:50:59.214Z,1.96
2022-12-15T08:54:02.315Z,1.94
2022-12-15T08:57:05.274Z,2.01
2022-12-15T09:00:08.586Z,2.05
2022-12-15T09:03:10.837Z,2.12
2022-12-15T09:06:16.328Z,2.14
2022-12-15T09:09:19.647Z,2.15
2022-12-15T09:12:22.327Z,2.14
2022-12-15T09:15:39.471Z,2.11
2022-12-15T09:18:49.610Z,2.16
2022-12-15T09:21:52.103Z,2.23
2022-12-15T09:24:54.638Z,2.33
2022-12-15T09:27:57.231Z,2.35
2022-12-15T09:31:09.115Z,2.50
2022-12-15T09:34:17.831Z,2.51
2022-12-15T09:37:20.912Z,2.65
2022-12-15T09:40:24.177Z,2.66
2022-12-15T09:43:38.919Z,2.61
2022-12-15T09:47:04.990Z,2.61
2022-12-15T09:50:12.644Z,2.61
2022-12-15T09:53:52.948Z,2.69
2022-12-15T09:57:28.772Z,2.59
2022-12-15T10:00:55.637Z,2.72
2022-12-15T10:04:04.265Z,2.77
2022-12-15T10:07:21.773Z,2.66
2022-12-15T10:10:30.704Z,2.66
2022-12-15T10:14:02.580Z,2.65
2022-12-15T10:17:23.824Z,2.59
2022-12-15T10:20:29.883Z,2.60
2022-12-15T10:23:35.999Z,2.63
2022-12-15T10:26:41.296Z,2.72
2022-12-15T10:29:51.801Z,2.71
2022-12-15T10:33:01.549Z,2.82
2022-12-15T10:36:12.471Z,2.85
2022-12-15T10:39:17.655Z,2.87
2022-12-15T10:42:25.691Z,2.95
2022-12-15T10:45:39.204Z,2.98
2022-12-15T10:48:44.216Z,2.84
2022-12-15T10:51:57.494Z,2.74
2022-12-15T10:55:00.801Z,2.86
2022-12-15T10:58:14.524Z,2.81
2022-12-15T11:01:24.973Z,2.97
2022-12-15T11:04:32.261Z,3.10
2022-12-15T11:07:41.661Z,3.19
2022-12-15T11:11:16.988Z,3.13
2022-12-15T11:14:24.330Z,3.10
2022-12-15T11:17:40.578Z,3.06
2022-12-15T11:21:07.669Z,2.99
2022-12-15T11:24:33.980Z,3.08
2022-12-15T11:27:43.408Z,3.26
2022-12-15T11:30:53.075Z,3.11
2022-12-15T11:33:57.135Z,2.99
2022-12-15T11:37:18.746Z,3.07
2022-12-15T11:40:35.795Z,3.17
2022-12-15T11:43:53.295Z,3.12
2022-12-15T11:47:10.781Z,3.04
2022-12-15T11:50:41.221Z,3.07
2022-12-15T11:53:58.910Z,3.11
2022-12-15T11:57:32.676Z,3.20
2022-12-15T12:00:42.754Z,3.20
2022-12-15T12:04:14.633Z,3.12
2022-12-15T12:07:51.912Z,3.07
2022-12-15T12:11:16.810Z,3.03
2022-12-15T12:14:39.885Z,3.17
2022-12-15T12:17:48.018Z,3.23
2022-12-15T12:20:56.593Z,3.24
2022-12-15T12:24:01.566Z,3.25
2022-12-15T12:27:17.968Z,3.23
2022-12-15T12:30:24.163Z,3.27
2022-12-15T12:33:39.877Z,3.29
2022-12-15T12:36:44.946Z,3.30
2022-12-15T12:39:54.134Z,3.39
2022-12-15T12:42:58.498Z,3.39
2022-12-15T12:46:16.168Z,3.36
2022-12-15T12:49:33.444Z,3.35
2022-12-15T12:52:38.047Z,3.23
2022-12-15T12:55:43.712Z,3.22
2022-12-15T12:58:48.461Z,3.15
2022-12-15T13:01:51.363Z,3.11
2022-12-15T13:05:27.287Z,3.10
2022-12-15T13:08:50.962Z,3.16
2022-12-15T13:12:14.989Z,3.24
2022-12-15T13:15:41.697Z,3.19
2022-12-15T13:19:06.758Z,2.98
2022-12-15T13:22:31.604Z,2.99
2022-12-15T13:25:42.491Z,3.01
2022-12-15T13:28:48.835Z,3.11
2022-12-15T13:31:54.004Z,3.18
2022-12-15T13:34:57.651Z,3.26
2022-12-15T13:38:07.491Z,3.27
2022-12-15T13:41:24.385Z,3.22
2022-12-15T13:44:35.364Z,3.30
2022-12-15T13:47:38.549Z,3.26
2022-12-15T13:50:51.367Z,3.08
2022-12-15T13:54:11.877Z,3.14
2022-12-15T13:57:17.383Z,3.15
2022-12-15T14:00:20.389Z,3.05
2022-12-15T14:03:24.062Z,3.08
2022-12-15T14:06:35.205Z,2.98
2022-12-15T14:09:41.997Z,2.96
2022-12-15T14:12:45.875Z,2.94
2022-12-15T14:15:58.315Z,2.85
2022-12-15T14:19:04.213Z,2.88
2022-12-15T14:22:27.055Z,2.93
2022-12-15T14:25:30.763Z,3.01
2022-12-15T14:28:35.953Z,3.01
2022-12-15T14:31:38.572Z,2.95
2022-12-15T14:34:43.977Z,2.90
2022-12-15T14:37:55.990Z,2.90
2022-12-15T14:41:02.064Z,2.92
2022-12-15T14:44:38.356Z,2.96
2022-12-15T14:48:05.742Z,2.90
2022-12-15T14:51:13.807Z,2.86
2022-12-15T14:54:35.599Z,2.85
2022-12-15T14:57:46.569Z,2.83
2022-12-15T15:00:52.522Z,2.90
2022-12-15T15:04:04.666Z,2.91
2022-12-15T15:07:18.326Z,2.88
2022-12-15T15:10:24.336Z,2.79
2022-12-15T15:13:40.020Z,2.81
2022-12-15T15:16:43.708Z,2.89
2022-12-15T15:19:59.019Z,3.00
2022-12-15T15:23:07.289Z,3.01
2022-12-15T15:26:10.603Z,2.98
2022-12-15T15:29:38.060Z,2.97
2022-12-15T15:32:58.075Z,2.98
2022-12-15T15:36:02.655Z,2.90
2022-12-15T15:39:15.769Z,2.91
2022-12-15T15:42:18.578Z,2.87
2022-12-15T15:45:23.419Z,2.81
2022-12-15T15:48:31.083Z,2.82
2022-12-15T15:51:35.217Z,2.88
2022-12-15T15:54:37.553Z,2.95
2022-12-15T15:57:40.102Z,2.96
2022-12-15T16:00:42.418Z,2.93
2022-12-15T16:03:45.140Z,3.01
2022-12-15T16:06:48.040Z,2.96
2022-12-15T16:09:51.651Z,2.92
2022-12-15T16:13:00.809Z,2.97
2022-12-15T16:16:04.394Z,2.98
2022-12-15T16:19:07.004Z,2.99
2022-12-15T16:22:18.484Z,3.01
2022-12-15T16:25:33.112Z,3.04
2022-12-15T16:28:42.223Z,3.07
2022-12-15T16:31:45.808Z,3.06
2022-12-15T16:34:49.758Z,3.09
2022-12-15T16:37:52.346Z,3.02
2022-12-15T16:40:56.650Z,2.95
2022-12-15T16:43:58.902Z,2.93
2022-12-15T16:47:01.561Z,2.99
2022-12-15T16:50:04.178Z,3.05
2022-12-15T16:53:15.353Z,2.95
2022-12-15T16:56:17.644Z,3.03
2022-12-15T16:59:33.028Z,2.97
2022-12-15T17:02:37.435Z,2.99
2022-12-15T17:05:42.039Z,2.92
2022-12-15T17:08:51.688Z,2.91
2022-12-15T17:11:58.491Z,2.87
2022-12-15T17:15:02.486Z,2.85
2022-12-15T17:18:05.140Z,2.75
2022-12-15T17:21:15.959Z,2.64
2022-12-15T17:24:20.476Z,2.70
2022-12-15T17:27:28.253Z,2.67
2022-12-15T17:30:30.865Z,2.67
2022-12-15T17:33:35.733Z,2.63
2022-12-15T17:36:38.583Z,2.72
2022-12-15T17:39:41.902Z,2.65
2022-12-15T17:42:46.118Z,2.61
2022-12-15T17:45:50.860Z,2.60
2022-12-15T17:48:53.469Z,2.59
2022-12-15T17:51:56.203Z,2.58
2022-12-15T17:54:58.796Z,2.58
2022-12-15T17:58:01.113Z,2.53
2022-12-15T18:01:04.176Z,2.50
2022-12-15T18:04:06.877Z,2.57
2022-12-15T18:07:27.392Z,2.50
2022-12-15T18:10:33.761Z,2.51
2022-12-15T18:13:36.048Z,2.52
2022-12-15T18:16:38.791Z,2.58
2022-12-15T18:19:41.066Z,2.46
2022-12-15T18:22:43.971Z,2.43
2022-12-15T18:25:46.348Z,2.35
2022-12-15T18:28:49.682Z,2.39
2022-12-15T18:31:52.364Z,2.32
2022-12-15T18:34:56.224Z,2.36
2022-12-15T18:37:58.635Z,2.32
2022-12-15T18:41:01.612Z,2.42
2022-12-15T18:44:04.026Z,2.41
2022-12-15T18:47:16.788Z,2.34
2022-12-15T18:50:24.957Z,2.46
2022-12-15T18:53:34.324Z,2.49
2022-12-15T18:56:37.157Z,2.40
2022-12-15T18:59:39.811Z,2.37
2022-12-15T19:02:42.715Z,2.44
2022-12-15T19:05:46.051Z,2.32
2022-12-15T19:08:50.065Z,2.33
2022-12-15T19:12:15.435Z,2.39
2022-12-15T19:15:19.345Z,2.37
2022-12-15T19:18:42.162Z,2.38
2022-12-15T19:21:44.547Z,2.44
2022-12-15T19:24:55.755Z,2.46
2022-12-15T19:28:00.072Z,2.50
2022-12-15T19:31:02.823Z,2.53
2022-12-15T19:34:05.181Z,2.57
2022-12-15T19:37:19.814Z,2.47
2022-12-15T19:40:33.196Z,2.44
2022-12-15T19:43:36.245Z,2.42
2022-12-15T19:46:40.862Z,2.51
2022-12-15T19:49:43.567Z,2.51
2022-12-15T19:52:49.115Z,2.48
2022-12-15T19:55:54.421Z,2.46
2022-12-15T19:58:57.007Z,2.52
2022-12-15T20:01:59.679Z,2.59
2022-12-15T20:05:02.447Z,2.53
2022-12-15T20:08:05.128Z,2.60
2022-12-15T20:11:25.794Z,2.56
2022-12-15T20:14:28.127Z,2.57
2022-12-15T20:17:30.628Z,2.58
2022-12-15T20:20:33.389Z,2.46
2022-12-15T20:23:40.640Z,2.41
2022-12-15T20:26:43.922Z,2.49
2022-12-15T20:29:46.532Z,2.51
2022-12-15T20:32:49.409Z,2.58
2022-12-15T20:35:52.445Z,2.50
2022-12-15T20:38:55.772Z,2.60
2022-12-15T20:41:58.369Z,2.58
2022-12-15T20:45:00.635Z,2.59
2022-12-15T20:48:03.225Z,2.64
2022-12-15T20:51:09.824Z,2.65
2022-12-15T20:54:21.292Z,2.66
2022-12-15T20:57:23.586Z,2.59
2022-12-15T21:00:26.374Z,2.53
2022-12-15T21:03:32.961Z,2.52
2022-12-15T21:06:36.904Z,2.50
2022-12-15T21:09:39.638Z,2.60
2022-12-15T21:12:44.194Z,2.61
2022-12-15T21:15:46.840Z,2.67
2022-12-15T21:22:25.824Z,2.65
2022-12-15T21:25:29.956Z,2.67
2022-12-15T21:28:32.636Z,2.60
2022-12-15T21:31:35.448Z,2.58
2022-12-15T21:34:37.950Z,2.60
2022-12-15T21:37:41.896Z,2.58
2022-12-15T21:40:44.443Z,2.55
2022-12-15T21:43:47.025Z,2.57
2022-12-15T21:46:49.333Z,2.50
2022-12-15T21:49:55.014Z,2.48
2022-12-15T21:52:57.527Z,2.49
2022-12-15T21:56:01.524Z,2.48
2022-12-15T21:59:11.642Z,2.57
2022-12-15T22:02:26.209Z,2.53
2022-12-15T22:05:32.556Z,2.52
2022-12-15T22:08:35.427Z,2.54
2022-12-15T22:11:40.219Z,2.57
2022-12-15T22:14:42.566Z,2.53
2022-12-15T22:17:45.498Z,2.58
2022-12-15T22:20:49.918Z,2.53
2022-12-15T22:23:52.713Z,2.59
2022-12-15T22:26:55.020Z,2.63
2022-12-15T22:29:57.623Z,2.56
2022-12-15T22:33:00.552Z,2.52
2022-12-15T22:36:03.104Z,2.54
2022-12-15T22:39:10.741Z,2.59
2022-12-15T22:42:17.506Z,2.65
2022-12-15T22:45:21.402Z,2.68
2022-12-15T22:48:29.878Z,2.53
2022-12-15T22:51:32.359Z,2.64
2022-12-15T22:54:34.871Z,2.59
2022-12-15T22:57:38.441Z,2.61
2022-12-15T23:00:41.627Z,2.63
2022-12-15T23:03:43.947Z,2.54
2022-12-15T23:06:46.591Z,2.59
2022-12-15T23:09:48.838Z,2.63
2022-12-15T23:12:54.462Z,2.66
2022-12-15T23:16:15.469Z,2.71
2022-12-15T23:19:23.996Z,2.67
2022-12-15T23:22:26.457Z,2.73
2022-12-15T23:25:29.394Z,2.74
2022-12-15T23:28:32.727Z,2.67
2022-12-15T23:31:35.494Z,2.68
2022-12-15T23:34:37.841Z,2.67
2022-12-15T23:37:40.738Z,2.59
2022-12-15T23:40:53.088Z,2.67
2022-12-15T23:43:56.007Z,2.68
2022-12-15T23:46:58.373Z,2.72
2022-12-15T23:50:01.123Z,2.78
2022-12-15T23:53:04.352Z,2.76
2022-12-15T23:56:15.657Z,2.72
2022-12-15T23:59:17.882Z,2.79
